createdAt,value
2018-01-11T00:06:48.394Z,0
2018-01-11T00:17:02.192Z,0
2018-01-11T00:27:16.546Z,0
2018-01-11T00:37:30.413Z,0
2018-01-11T00:47:45.918Z,0
2018-01-11T00:58:01.343Z,0
2018-01-11T01:08:16.909Z,0
2018-01-11T01:18:31.333Z,0
2018-01-11T01:28:45.719Z,0
2018-01-11T01:39:01.265Z,0
2018-01-11T01:49:15.102Z,0
2018-01-11T01:59:28.999Z,0
2018-01-11T02:09:43.598Z,0
2018-01-11T02:19:57.596Z,0
2018-01-11T02:30:12.535Z,0
2018-01-11T02:40:27.366Z,0
2018-01-11T02:50:42.359Z,0
2018-01-11T03:00:57.113Z,0
2018-01-11T03:11:12.551Z,0
2018-01-11T03:21:27.691Z,0
2018-01-11T03:31:42.362Z,0
2018-01-11T03:41:56.276Z,0
2018-01-11T03:52:11.602Z,0
2018-01-11T04:02:25.306Z,0
2018-01-11T04:12:40.932Z,0
2018-01-11T04:22:56.199Z,0
2018-01-11T04:33:09.881Z,0
2018-01-11T04:43:25.459Z,0
2018-01-11T04:53:39.966Z,0
2018-01-11T05:03:55.432Z,0
2018-01-11T05:14:09.629Z,0
2018-01-11T05:24:25.045Z,0
2018-01-11T05:34:40.439Z,0
2018-01-11T05:44:55.341Z,0
2018-01-11T05:55:09.226Z,0
2018-01-11T06:05:23.275Z,0
2018-01-11T06:15:37.773Z,0
2018-01-11T06:25:52.982Z,0
2018-01-11T06:36:08.622Z,0
2018-01-11T06:46:22.590Z,0
2018-01-11T06:56:37.753Z,0
2018-01-11T07:06:52.900Z,8
2018-01-11T07:17:08.430Z,36
2018-01-11T07:27:22.067Z,116
2018-01-11T07:37:37.116Z,344
2018-01-11T07:47:52.187Z,800
2018-01-11T07:58:07.677Z,1464
2018-01-11T08:08:22.908Z,1956
2018-01-11T08:18:37.746Z,2852
2018-01-11T08:28:52.273Z,4136
2018-01-11T08:39:06.635Z,5484
2018-01-11T08:49:21.822Z,6880
2018-01-11T08:59:36.336Z,7492
2018-01-11T09:09:51.918Z,9556
2018-01-11T09:20:06.959Z,11004
2018-01-11T09:30:22.088Z,8348
2018-01-11T09:40:35.880Z,10192
2018-01-11T09:50:50.025Z,11824
2018-01-11T10:01:03.834Z,17600
2018-01-11T10:11:18.860Z,17376
2018-01-11T10:21:33.964Z,12116
2018-01-11T10:31:49.106Z,11224
2018-01-11T10:42:04.782Z,12916
2018-01-11T10:52:20.047Z,12804
2018-01-11T11:02:33.912Z,12588
2018-01-11T11:12:48.781Z,12244
2018-01-11T11:23:03.243Z,13860
2018-01-11T11:33:17.284Z,13376
2018-01-11T11:43:32.678Z,11636
2018-01-11T11:53:47.536Z,10012
2018-01-11T12:04:01.665Z,11244
2018-01-11T12:14:16.207Z,11452
2018-01-11T12:24:30.731Z,11940
2018-01-11T12:34:45.391Z,12348
2018-01-11T12:45:00.105Z,8040
2018-01-11T12:55:14.098Z,5408
2018-01-11T13:05:28.250Z,4952
2018-01-11T13:15:42.278Z,3832
2018-01-11T13:25:56.966Z,3472
2018-01-11T13:36:10.960Z,4152
2018-01-11T13:46:26.576Z,3500
2018-01-11T13:56:40.324Z,2736
2018-01-11T14:06:55.953Z,2440
2018-01-11T14:17:11.554Z,2320
2018-01-11T14:27:26.276Z,2564
2018-01-11T14:37:41.373Z,2104
2018-01-11T14:47:55.109Z,2252
2018-01-11T14:58:09.487Z,1936
2018-01-11T15:08:24.201Z,1592
2018-01-11T15:18:38.388Z,1184
2018-01-11T15:28:54.125Z,540
2018-01-11T15:39:08.952Z,328
2018-01-11T15:49:24.109Z,140
2018-01-11T15:59:38.029Z,40
2018-01-11T16:09:53.504Z,8
2018-01-11T16:20:07.601Z,0
2018-01-11T16:30:22.108Z,0
2018-01-11T16:40:37.416Z,0
2018-01-11T16:50:52.867Z,0
2018-01-11T17:01:07.021Z,0
2018-01-11T17:11:21.641Z,0
2018-01-11T17:21:37.213Z,0
2018-01-11T17:31:52.435Z,0
2018-01-11T17:42:07.283Z,0
2018-01-11T17:52:20.920Z,0
2018-01-11T18:02:34.919Z,0
2018-01-11T18:12:49.961Z,0
2018-01-11T18:23:04.650Z,0
2018-01-11T18:33:19.298Z,0
2018-01-11T18:43:34.616Z,0
2018-01-11T18:53:48.925Z,0
2018-01-11T19:04:03.457Z,0
2018-01-11T19:14:17.671Z,0
2018-01-11T19:24:33.265Z,0
2018-01-11T19:34:48.426Z,0
2018-01-11T19:45:04.091Z,0
2018-01-11T19:55:19.255Z,0
2018-01-11T20:05:32.941Z,0
2018-01-11T20:15:47.456Z,0
2018-01-11T20:26:01.956Z,0
2018-01-11T20:36:17.323Z,0
2018-01-11T20:46:31.201Z,0
2018-01-11T20:56:45.572Z,0
2018-01-11T21:07:00.985Z,0
2018-01-11T21:17:16.393Z,0
2018-01-11T21:27:30.613Z,0
2018-01-11T21:37:45.897Z,0
2018-01-11T21:47:59.636Z,0
2018-01-11T21:58:13.298Z,0
2018-01-11T22:08:27.159Z,0
2018-01-11T22:18:41.088Z,0
2018-01-11T22:28:55.944Z,0
2018-01-11T22:39:10.424Z,0
2018-01-11T22:49:24.622Z,0
2018-01-11T22:59:38.950Z,0
2018-01-11T23:09:53.558Z,0
2018-01-11T23:20:08.335Z,0
2018-01-11T23:30:23.461Z,0
2018-01-11T23:40:37.421Z,0
2018-01-11T23:50:52.056Z,0
